sensor_id;sensor_type;location;lat;lon;timestamp;temperature;humidity
2260;DHT22;333;48.800;9.530;2023-03-14T13:43:15;11.10;94.60
2260;DHT22;333;48.800;9.530;2023-03-14T13:45:49;10.90;95.10
2260;DHT22;333;48.800;9.530;2023-03-14T13:48:19;10.60;94.20
2260;DHT22;333;48.800;9.530;2023-03-14T13:50:51;10.70;94.30
2260;DHT22;333;48.800;9.530;2023-03-14T13:53:18;10.60;93.70
2260;DHT22;333;48.800;9.530;2023-03-14T13:55:45;10.40;93.90
2260;DHT22;333;48.800;9.530;2023-03-14T13:58:27;10.30;94.40
2260;DHT22;333;48.800;9.530;2023-03-14T14:01:13;10.30;93.80
2260;DHT22;333;48.800;9.530;2023-03-14T14:03:44;10.30;93.40
2260;DHT22;333;48.800;9.530;2023-03-14T14:06:23;10.30;94.10
2260;DHT22;333;48.800;9.530;2023-03-14T14:08:52;10.40;94.00
2260;DHT22;333;48.800;9.530;2023-03-14T14:11:25;10.70;91.80
2260;DHT22;333;48.800;9.530;2023-03-14T14:13:55;10.70;91.30
2260;DHT22;333;48.800;9.530;2023-03-14T14:16:24;10.90;90.80
2260;DHT22;333;48.800;9.530;2023-03-14T14:18:53;11.00;89.00
2260;DHT22;333;48.800;9.530;2023-03-14T14:21:22;10.60;88.30
2260;DHT22;333;48.800;9.530;2023-03-14T14:23:49;10.40;89.40
2260;DHT22;333;48.800;9.530;2023-03-14T14:26:17;10.30;89.40
2260;DHT22;333;48.800;9.530;2023-03-14T14:28:45;10.20;90.00
2260;DHT22;333;48.800;9.530;2023-03-14T14:31:20;10.10;88.60
2260;DHT22;333;48.800;9.530;2023-03-14T14:33:56;10.00;88.10
2260;DHT22;333;48.800;9.530;2023-03-14T14:36:25;10.00;88.70
2260;DHT22;333;48.800;9.530;2023-03-14T14:38:54;9.90;88.40
2260;DHT22;333;48.800;9.530;2023-03-14T14:41:27;9.90;86.90
2260;DHT22;333;48.800;9.530;2023-03-14T14:43:55;9.80;85.60
2260;DHT22;333;48.800;9.530;2023-03-14T14:46:22;9.80;86.20
2260;DHT22;333;48.800;9.530;2023-03-14T14:48:49;9.80;86.30
2260;DHT22;333;48.800;9.530;2023-03-14T14:51:32;9.70;86.90
2260;DHT22;333;48.800;9.530;2023-03-14T14:54:05;9.70;86.30
2260;DHT22;333;48.800;9.530;2023-03-14T14:56:36;9.70;86.10
2260;DHT22;333;48.800;9.530;2023-03-14T14:59:05;9.70;86.50
2260;DHT22;333;48.800;9.530;2023-03-14T15:01:34;9.70;86.90
2260;DHT22;333;48.800;9.530;2023-03-14T15:04:04;9.70;87.20
2260;DHT22;333;48.800;9.530;2023-03-14T15:06:37;9.80;86.50
2260;DHT22;333;48.800;9.530;2023-03-14T15:09:05;9.80;87.20
2260;DHT22;333;48.800;9.530;2023-03-14T15:11:33;9.80;86.60
2260;DHT22;333;48.800;9.530;2023-03-14T15:14:00;9.70;87.10
2260;DHT22;333;48.800;9.530;2023-03-14T15:16:28;9.70;86.80
2260;DHT22;333;48.800;9.530;2023-03-14T15:18:57;9.70;87.00
2260;DHT22;333;48.800;9.530;2023-03-14T15:21:26;9.80;87.90
2260;DHT22;333;48.800;9.530;2023-03-14T15:23:55;9.90;87.70
2260;DHT22;333;48.800;9.530;2023-03-14T15:26:24;9.90;87.40
2260;DHT22;333;48.800;9.530;2023-03-14T15:28:52;10.00;87.60
2260;DHT22;333;48.800;9.530;2023-03-14T15:31:19;10.20;86.80
2260;DHT22;333;48.800;9.530;2023-03-14T15:33:47;10.80;85.50
2260;DHT22;333;48.800;9.530;2023-03-14T15:36:21;11.10;84.40
2260;DHT22;333;48.800;9.530;2023-03-14T15:38:48;11.20;84.40
2260;DHT22;333;48.800;9.530;2023-03-14T15:41:17;10.80;84.80
2260;DHT22;333;48.800;9.530;2023-03-14T15:43:44;10.70;85.40
2260;DHT22;333;48.800;9.530;2023-03-14T15:46:12;11.40;84.10
2260;DHT22;333;48.800;9.530;2023-03-14T15:48:40;11.40;83.40
2260;DHT22;333;48.800;9.530;2023-03-14T15:51:07;11.30;84.00
2260;DHT22;333;48.800;9.530;2023-03-14T15:53:34;11.40;83.80
2260;DHT22;333;48.800;9.530;2023-03-14T15:56:02;11.60;82.90
2260;DHT22;333;48.800;9.530;2023-03-14T15:58:31;11.60;83.00
2260;DHT22;333;48.800;9.530;2023-03-14T16:00:59;11.40;82.80
2260;DHT22;333;48.800;9.530;2023-03-14T16:03:26;10.50;84.60
2260;DHT22;333;48.800;9.530;2023-03-14T16:05:53;10.30;86.30
2260;DHT22;333;48.800;9.530;2023-03-14T16:08:21;10.10;86.60
2260;DHT22;333;48.800;9.530;2023-03-14T16:10:48;10.00;87.50
2260;DHT22;333;48.800;9.530;2023-03-14T16:13:15;10.00;87.90
2260;DHT22;333;48.800;9.530;2023-03-14T16:15:52;10.00;88.50
2260;DHT22;333;48.800;9.530;2023-03-14T16:18:19;10.00;88.30
2260;DHT22;333;48.800;9.530;2023-03-14T16:20:52;10.20;87.50
2260;DHT22;333;48.800;9.530;2023-03-14T16:23:18;10.60;87.80
2260;DHT22;333;48.800;9.530;2023-03-14T16:25:45;10.60;86.80
2260;DHT22;333;48.800;9.530;2023-03-14T16:28:12;10.20;87.90
2260;DHT22;333;48.800;9.530;2023-03-14T16:30:39;9.90;89.20
2260;DHT22;333;48.800;9.530;2023-03-14T16:33:08;9.90;89.30
2260;DHT22;333;48.800;9.530;2023-03-14T16:35:36;9.80;89.70
2260;DHT22;333;48.800;9.530;2023-03-14T16:38:03;9.60;90.00
2260;DHT22;333;48.800;9.530;2023-03-14T16:40:30;9.50;90.10
2260;DHT22;333;48.800;9.530;2023-03-14T16:42:57;9.50;90.50
2260;DHT22;333;48.800;9.530;2023-03-14T16:45:24;9.60;90.40
2260;DHT22;333;48.800;9.530;2023-03-14T16:47:51;9.60;90.30
2260;DHT22;333;48.800;9.530;2023-03-14T16:50:19;9.50;90.40
2260;DHT22;333;48.800;9.530;2023-03-14T16:52:46;9.50;91.10
2260;DHT22;333;48.800;9.530;2023-03-14T16:55:14;9.40;91.20
2260;DHT22;333;48.800;9.530;2023-03-14T16:57:41;9.30;90.90
2260;DHT22;333;48.800;9.530;2023-03-14T17:00:09;9.30;90.90
2260;DHT22;333;48.800;9.530;2023-03-14T17:02:36;9.30;91.20
2260;DHT22;333;48.800;9.530;2023-03-14T17:05:04;9.30;91.90
2260;DHT22;333;48.800;9.530;2023-03-14T17:07:32;9.30;92.40
2260;DHT22;333;48.800;9.530;2023-03-14T17:09:59;9.30;92.50
2260;DHT22;333;48.800;9.530;2023-03-14T17:12:26;9.30;92.60
2260;DHT22;333;48.800;9.530;2023-03-14T17:14:53;9.30;92.90
2260;DHT22;333;48.800;9.530;2023-03-14T17:17:21;9.20;92.90
2260;DHT22;333;48.800;9.530;2023-03-14T17:19:47;9.30;92.50
2260;DHT22;333;48.800;9.530;2023-03-14T17:22:14;9.30;92.90
2260;DHT22;333;48.800;9.530;2023-03-14T17:24:43;9.30;93.20
2260;DHT22;333;48.800;9.530;2023-03-14T17:27:10;9.30;93.20
2260;DHT22;333;48.800;9.530;2023-03-14T17:29:38;9.30;92.90
2260;DHT22;333;48.800;9.530;2023-03-14T17:32:05;9.20;93.70
2260;DHT22;333;48.800;9.530;2023-03-14T17:34:32;9.20;94.20
2260;DHT22;333;48.800;9.530;2023-03-14T17:36:58;9.10;95.70
2260;DHT22;333;48.800;9.530;2023-03-14T17:39:25;8.90;98.50
2260;DHT22;333;48.800;9.530;2023-03-14T17:41:53;8.80;99.60
2260;DHT22;333;48.800;9.530;2023-03-14T17:44:21;8.70;99.60
2260;DHT22;333;48.800;9.530;2023-03-14T17:46:48;8.60;99.60
2260;DHT22;333;48.800;9.530;2023-03-14T17:49:15;8.50;99.60
2260;DHT22;333;48.800;9.530;2023-03-14T17:51:42;8.40;99.60
2260;DHT22;333;48.800;9.530;2023-03-14T17:54:08;8.30;99.60
2260;DHT22;333;48.800;9.530;2023-03-14T17:56:35;8.20;99.60
2260;DHT22;333;48.800;9.530;2023-03-14T17:59:04;8.10;99.60
2260;DHT22;333;48.800;9.530;2023-03-14T18:01:30;8.00;99.60
2260;DHT22;333;48.800;9.530;2023-03-14T18:03:57;7.90;99.60
2260;DHT22;333;48.800;9.530;2023-03-14T18:06:24;7.80;99.60
2260;DHT22;333;48.800;9.530;2023-03-14T18:08:55;7.70;99.60
2260;DHT22;333;48.800;9.530;2023-03-14T18:11:23;7.70;99.60
2260;DHT22;333;48.800;9.530;2023-03-14T18:13:49;7.60;99.60
2260;DHT22;333;48.800;9.530;2023-03-14T18:16:18;7.60;99.60
2260;DHT22;333;48.800;9.530;2023-03-14T18:18:47;7.60;99.60
2260;DHT22;333;48.800;9.530;2023-03-14T18:21:14;7.60;99.60
2260;DHT22;333;48.800;9.530;2023-03-14T18:23:41;7.60;99.60
2260;DHT22;333;48.800;9.530;2023-03-14T18:26:08;7.50;99.60
2260;DHT22;333;48.800;9.530;2023-03-14T18:28:35;7.50;99.60
2260;DHT22;333;48.800;9.530;2023-03-14T18:31:06;7.40;99.60
2260;DHT22;333;48.800;9.530;2023-03-14T18:33:34;7.40;99.60
2260;DHT22;333;48.800;9.530;2023-03-14T18:36:05;7.30;99.60
2260;DHT22;333;48.800;9.530;2023-03-14T18:38:32;7.20;99.60
2260;DHT22;333;48.800;9.530;2023-03-14T18:41:03;7.20;99.60
2260;DHT22;333;48.800;9.530;2023-03-14T18:43:31;7.10;99.60
2260;DHT22;333;48.800;9.530;2023-03-14T18:45:57;7.00;99.60
2260;DHT22;333;48.800;9.530;2023-03-14T18:48:24;6.80;99.60
2260;DHT22;333;48.800;9.530;2023-03-14T18:50:53;6.70;99.60
2260;DHT22;333;48.800;9.530;2023-03-14T18:53:20;6.70;99.60
2260;DHT22;333;48.800;9.530;2023-03-14T18:55:53;6.60;99.60
2260;DHT22;333;48.800;9.530;2023-03-14T18:58:20;6.60;99.60
2260;DHT22;333;48.800;9.530;2023-03-14T19:00:54;6.60;99.60
2260;DHT22;333;48.800;9.530;2023-03-14T19:03:21;6.60;99.60
2260;DHT22;333;48.800;9.530;2023-03-14T19:05:50;6.50;99.60
2260;DHT22;333;48.800;9.530;2023-03-14T19:08:19;6.50;99.60
2260;DHT22;333;48.800;9.530;2023-03-14T19:10:48;6.50;99.60
2260;DHT22;333;48.800;9.530;2023-03-14T19:13:15;6.40;99.60
2260;DHT22;333;48.800;9.530;2023-03-14T19:15:42;6.40;99.60
2260;DHT22;333;48.800;9.530;2023-03-14T19:18:09;6.30;99.60
2260;DHT22;333;48.800;9.530;2023-03-14T19:20:36;6.30;99.60
2260;DHT22;333;48.800;9.530;2023-03-14T19:23:03;6.30;99.60
2260;DHT22;333;48.800;9.530;2023-03-14T19:25:32;6.20;99.60
2260;DHT22;333;48.800;9.530;2023-03-14T19:27:59;6.30;99.60
2260;DHT22;333;48.800;9.530;2023-03-14T19:30:26;6.30;99.60
2260;DHT22;333;48.800;9.530;2023-03-14T19:32:54;6.30;99.60
2260;DHT22;333;48.800;9.530;2023-03-14T19:35:21;6.30;99.60
2260;DHT22;333;48.800;9.530;2023-03-14T19:37:48;6.40;99.60
2260;DHT22;333;48.800;9.530;2023-03-14T19:40:15;6.40;99.60
2260;DHT22;333;48.800;9.530;2023-03-14T19:42:43;6.30;99.60
2260;DHT22;333;48.800;9.530;2023-03-14T19:45:10;6.30;99.60
2260;DHT22;333;48.800;9.530;2023-03-14T19:47:37;6.30;99.60
2260;DHT22;333;48.800;9.530;2023-03-14T19:50:05;6.30;99.60
2260;DHT22;333;48.800;9.530;2023-03-14T19:52:32;6.30;99.60
2260;DHT22;333;48.800;9.530;2023-03-14T19:55:00;6.30;99.60
2260;DHT22;333;48.800;9.530;2023-03-14T19:57:27;6.20;99.60
2260;DHT22;333;48.800;9.530;2023-03-14T19:59:55;6.20;99.60
2260;DHT22;333;48.800;9.530;2023-03-14T20:02:22;6.30;99.60
2260;DHT22;333;48.800;9.530;2023-03-14T20:04:49;6.20;99.60
2260;DHT22;333;48.800;9.530;2023-03-14T20:07:19;6.20;99.60
2260;DHT22;333;48.800;9.530;2023-03-14T20:09:46;6.10;99.60
2260;DHT22;333;48.800;9.530;2023-03-14T20:12:13;6.00;99.60
2260;DHT22;333;48.800;9.530;2023-03-14T20:14:40;6.00;99.60
2260;DHT22;333;48.800;9.530;2023-03-14T20:17:08;6.00;99.60
2260;DHT22;333;48.800;9.530;2023-03-14T20:19:36;5.90;99.60
2260;DHT22;333;48.800;9.530;2023-03-14T20:22:03;6.00;99.60
2260;DHT22;333;48.800;9.530;2023-03-14T20:24:30;6.00;99.60
2260;DHT22;333;48.800;9.530;2023-03-14T20:26:58;6.00;99.60
2260;DHT22;333;48.800;9.530;2023-03-14T20:29:25;6.00;99.60
2260;DHT22;333;48.800;9.530;2023-03-14T20:31:52;6.00;99.60
2260;DHT22;333;48.800;9.530;2023-03-14T20:34:20;6.00;99.60
2260;DHT22;333;48.800;9.530;2023-03-14T20:36:47;6.00;99.60
2260;DHT22;333;48.800;9.530;2023-03-14T20:39:17;6.00;99.60
2260;DHT22;333;48.800;9.530;2023-03-14T20:41:44;6.00;99.60
2260;DHT22;333;48.800;9.530;2023-03-14T20:44:11;6.10;99.60
2260;DHT22;333;48.800;9.530;2023-03-14T20:46:39;6.20;99.60
2260;DHT22;333;48.800;9.530;2023-03-14T20:49:06;6.30;99.60
2260;DHT22;333;48.800;9.530;2023-03-14T20:51:34;6.40;99.60
2260;DHT22;333;48.800;9.530;2023-03-14T20:54:01;6.50;99.60
2260;DHT22;333;48.800;9.530;2023-03-14T20:56:28;6.40;99.60
2260;DHT22;333;48.800;9.530;2023-03-14T20:58:54;6.40;99.60
2260;DHT22;333;48.800;9.530;2023-03-14T21:01:21;6.40;99.60
2260;DHT22;333;48.800;9.530;2023-03-14T21:03:48;6.40;99.60
2260;DHT22;333;48.800;9.530;2023-03-14T21:06:15;6.50;99.60
2260;DHT22;333;48.800;9.530;2023-03-14T21:08:43;6.50;99.60
2260;DHT22;333;48.800;9.530;2023-03-14T21:11:10;6.40;99.60
2260;DHT22;333;48.800;9.530;2023-03-14T21:13:37;6.40;99.60
2260;DHT22;333;48.800;9.530;2023-03-14T21:16:05;6.30;99.60
2260;DHT22;333;48.800;9.530;2023-03-14T21:18:32;6.20;99.60
2260;DHT22;333;48.800;9.530;2023-03-14T21:21:00;6.10;99.60
2260;DHT22;333;48.800;9.530;2023-03-14T21:23:27;6.10;99.60
2260;DHT22;333;48.800;9.530;2023-03-14T21:25:56;6.10;99.60
2260;DHT22;333;48.800;9.530;2023-03-14T21:28:23;6.20;99.60
2260;DHT22;333;48.800;9.530;2023-03-14T21:30:50;6.10;99.60
2260;DHT22;333;48.800;9.530;2023-03-14T21:33:17;6.10;99.60
2260;DHT22;333;48.800;9.530;2023-03-14T21:35:44;6.20;99.60
2260;DHT22;333;48.800;9.530;2023-03-14T21:38:12;6.30;99.60
2260;DHT22;333;48.800;9.530;2023-03-14T21:40:40;6.40;99.60
2260;DHT22;333;48.800;9.530;2023-03-14T21:43:10;6.40;99.60
2260;DHT22;333;48.800;9.530;2023-03-14T21:45:40;6.30;99.60
2260;DHT22;333;48.800;9.530;2023-03-14T21:48:07;6.50;99.60
2260;DHT22;333;48.800;9.530;2023-03-14T21:50:33;6.40;99.60
2260;DHT22;333;48.800;9.530;2023-03-14T21:53:00;6.30;99.60
2260;DHT22;333;48.800;9.530;2023-03-14T21:55:27;6.20;99.60
2260;DHT22;333;48.800;9.530;2023-03-14T21:57:55;6.10;99.60
2260;DHT22;333;48.800;9.530;2023-03-14T22:00:24;5.90;99.60
2260;DHT22;333;48.800;9.530;2023-03-14T22:02:52;5.70;99.60
2260;DHT22;333;48.800;9.530;2023-03-14T22:05:20;5.50;99.60
2260;DHT22;333;48.800;9.530;2023-03-14T22:07:47;5.30;99.60
2260;DHT22;333;48.800;9.530;2023-03-14T22:10:14;5.10;99.60
2260;DHT22;333;48.800;9.530;2023-03-14T22:12:41;5.00;99.60
2260;DHT22;333;48.800;9.530;2023-03-14T22:15:09;4.80;99.60
2260;DHT22;333;48.800;9.530;2023-03-14T22:17:38;4.70;99.60
2260;DHT22;333;48.800;9.530;2023-03-14T22:20:07;4.60;99.60
2260;DHT22;333;48.800;9.530;2023-03-14T22:22:35;4.70;99.60
2260;DHT22;333;48.800;9.530;2023-03-14T22:25:02;4.70;99.60
2260;DHT22;333;48.800;9.530;2023-03-14T22:27:30;4.70;99.60
2260;DHT22;333;48.800;9.530;2023-03-14T22:29:56;4.80;99.60
2260;DHT22;333;48.800;9.530;2023-03-14T22:32:23;4.90;99.60
2260;DHT22;333;48.800;9.530;2023-03-14T22:34:51;4.90;99.60
2260;DHT22;333;48.800;9.530;2023-03-14T22:37:18;5.00;99.60
2260;DHT22;333;48.800;9.530;2023-03-14T22:39:47;5.00;99.60
2260;DHT22;333;48.800;9.530;2023-03-14T22:42:14;4.90;99.60
2260;DHT22;333;48.800;9.530;2023-03-14T22:44:41;4.80;99.60
2260;DHT22;333;48.800;9.530;2023-03-14T22:47:08;4.80;99.60
2260;DHT22;333;48.800;9.530;2023-03-14T22:49:35;4.90;99.60
2260;DHT22;333;48.800;9.530;2023-03-14T22:52:03;4.90;99.60
2260;DHT22;333;48.800;9.530;2023-03-14T22:54:30;5.10;99.60
2260;DHT22;333;48.800;9.530;2023-03-14T22:56:57;5.30;99.60
2260;DHT22;333;48.800;9.530;2023-03-14T22:59:24;5.30;99.60
2260;DHT22;333;48.800;9.530;2023-03-14T23:01:51;5.40;99.60
2260;DHT22;333;48.800;9.530;2023-03-14T23:04:18;5.20;99.60
2260;DHT22;333;48.800;9.530;2023-03-14T23:06:45;4.90;99.60
2260;DHT22;333;48.800;9.530;2023-03-14T23:09:13;4.70;99.60
2260;DHT22;333;48.800;9.530;2023-03-14T23:11:40;4.30;99.60
2260;DHT22;333;48.800;9.530;2023-03-14T23:14:07;4.10;99.60
2260;DHT22;333;48.800;9.530;2023-03-14T23:16:34;3.90;99.60
2260;DHT22;333;48.800;9.530;2023-03-14T23:19:01;3.70;99.60
2260;DHT22;333;48.800;9.530;2023-03-14T23:21:28;3.40;99.60
2260;DHT22;333;48.800;9.530;2023-03-14T23:23:55;3.10;99.60
2260;DHT22;333;48.800;9.530;2023-03-14T23:26:25;3.00;99.60
2260;DHT22;333;48.800;9.530;2023-03-14T23:28:52;2.90;99.60
2260;DHT22;333;48.800;9.530;2023-03-14T23:31:20;2.80;99.60
2260;DHT22;333;48.800;9.530;2023-03-14T23:33:47;2.80;99.60
2260;DHT22;333;48.800;9.530;2023-03-14T23:36:14;2.70;99.60
2260;DHT22;333;48.800;9.530;2023-03-14T23:38:43;2.70;99.60
2260;DHT22;333;48.800;9.530;2023-03-14T23:41:11;2.60;99.60
2260;DHT22;333;48.800;9.530;2023-03-14T23:43:41;2.50;99.60
2260;DHT22;333;48.800;9.530;2023-03-14T23:46:08;2.50;99.60
2260;DHT22;333;48.800;9.530;2023-03-14T23:48:35;2.40;99.60
2260;DHT22;333;48.800;9.530;2023-03-14T23:51:05;2.40;99.60
2260;DHT22;333;48.800;9.530;2023-03-14T23:53:32;2.40;99.60
2260;DHT22;333;48.800;9.530;2023-03-14T23:56:00;2.40;99.60
2260;DHT22;333;48.800;9.530;2023-03-14T23:58:28;2.40;99.60
